sensor_id;sensor_type;location;lat;lon;timestamp;pressure;altitude;pressure_sealevel;temperature;humidity
73600;BME280;61877;48.246;9.220;2024-03-02T00:01:24;92968.75;;;5.02;100.00
73600;BME280;61877;48.246;9.220;2024-03-02T00:03:51;92958.31;;;4.97;100.00
73600;BME280;61877;48.246;9.220;2024-03-02T00:06:21;92957.41;;;4.93;100.00
73600;BME280;61877;48.246;9.220;2024-03-02T00:08:47;92968.16;;;4.96;100.00
73600;BME280;61877;48.246;9.220;2024-03-02T00:11:16;92962.28;;;4.91;100.00
73600;BME280;61877;48.246;9.220;2024-03-02T00:13:42;92959.63;;;4.91;100.00
73600;BME280;61877;48.246;9.220;2024-03-02T00:16:09;92973.59;;;5.00;100.00
73600;BME280;61877;48.246;9.220;2024-03-02T00:18:36;92969.84;;;5.01;100.00
73600;BME280;61877;48.246;9.220;2024-03-02T00:21:06;92971.75;;;5.00;100.00
73600;BME280;61877;48.246;9.220;2024-03-02T00:23:34;92972.69;;;4.96;100.00
73600;BME280;61877;48.246;9.220;2024-03-02T00:26:01;92966.97;;;4.94;100.00
73600;BME280;61877;48.246;9.220;2024-03-02T00:28:29;92969.50;;;4.90;100.00
73600;BME280;61877;48.246;9.220;2024-03-02T00:31:01;92975.47;;;4.87;100.00
73600;BME280;61877;48.246;9.220;2024-03-02T00:33:31;92974.22;;;4.85;100.00
73600;BME280;61877;48.246;9.220;2024-03-02T00:35:58;92978.00;;;4.84;100.00
73600;BME280;61877;48.246;9.220;2024-03-02T00:38:25;92977.09;;;4.80;100.00
73600;BME280;61877;48.246;9.220;2024-03-02T00:40:58;92973.09;;;4.74;100.00
73600;BME280;61877;48.246;9.220;2024-03-02T00:43:41;92973.19;;;4.65;100.00
73600;BME280;61877;48.246;9.220;2024-03-02T00:46:15;92978.56;;;4.57;100.00
73600;BME280;61877;48.246;9.220;2024-03-02T00:48:48;92970.03;;;4.51;100.00
73600;BME280;61877;48.246;9.220;2024-03-02T00:51:18;92973.53;;;4.43;100.00
73600;BME280;61877;48.246;9.220;2024-03-02T00:53:45;92973.59;;;4.35;100.00
73600;BME280;61877;48.246;9.220;2024-03-02T00:56:13;92974.91;;;4.29;100.00
73600;BME280;61877;48.246;9.220;2024-03-02T00:58:40;92975.56;;;4.26;100.00
73600;BME280;61877;48.246;9.220;2024-03-02T01:01:06;92972.47;;;4.24;100.00
73600;BME280;61877;48.246;9.220;2024-03-02T01:03:33;92973.56;;;4.23;100.00
73600;BME280;61877;48.246;9.220;2024-03-02T01:06:00;92977.31;;;4.22;100.00
73600;BME280;61877;48.246;9.220;2024-03-02T01:08:26;92980.16;;;4.17;100.00
73600;BME280;61877;48.246;9.220;2024-03-02T01:10:53;92974.72;;;4.13;100.00
73600;BME280;61877;48.246;9.220;2024-03-02T01:13:22;92976.47;;;4.09;100.00
73600;BME280;61877;48.246;9.220;2024-03-02T01:15:49;92984.50;;;4.01;100.00
73600;BME280;61877;48.246;9.220;2024-03-02T01:18:17;92981.56;;;3.93;100.00
73600;BME280;61877;48.246;9.220;2024-03-02T01:20:43;92974.91;;;3.87;100.00
73600;BME280;61877;48.246;9.220;2024-03-02T01:23:10;92981.50;;;3.81;100.00
73600;BME280;61877;48.246;9.220;2024-03-02T01:25:37;92979.03;;;3.76;100.00
73600;BME280;61877;48.246;9.220;2024-03-02T01:28:04;92978.31;;;3.67;100.00
73600;BME280;61877;48.246;9.220;2024-03-02T01:30:32;92972.28;;;3.58;100.00
73600;BME280;61877;48.246;9.220;2024-03-02T01:32:59;92971.56;;;3.49;100.00
73600;BME280;61877;48.246;9.220;2024-03-02T01:35:26;92970.31;;;3.47;100.00
73600;BME280;61877;48.246;9.220;2024-03-02T01:37:52;92973.47;;;3.40;100.00
73600;BME280;61877;48.246;9.220;2024-03-02T01:40:19;92974.28;;;3.32;100.00
73600;BME280;61877;48.246;9.220;2024-03-02T01:42:46;92978.22;;;3.26;100.00
73600;BME280;61877;48.246;9.220;2024-03-02T01:45:12;92966.50;;;3.27;100.00
73600;BME280;61877;48.246;9.220;2024-03-02T01:47:40;92972.31;;;3.21;100.00
73600;BME280;61877;48.246;9.220;2024-03-02T01:50:07;92974.66;;;3.14;100.00
73600;BME280;61877;48.246;9.220;2024-03-02T01:52:34;92975.63;;;3.09;100.00
73600;BME280;61877;48.246;9.220;2024-03-02T01:55:01;92983.44;;;3.06;100.00
73600;BME280;61877;48.246;9.220;2024-03-02T01:57:28;92982.66;;;3.05;100.00
73600;BME280;61877;48.246;9.220;2024-03-02T01:59:54;92980.47;;;3.07;100.00
73600;BME280;61877;48.246;9.220;2024-03-02T02:02:21;92976.28;;;3.06;100.00
73600;BME280;61877;48.246;9.220;2024-03-02T02:04:49;92972.41;;;2.95;100.00
73600;BME280;61877;48.246;9.220;2024-03-02T02:07:16;92971.19;;;2.84;100.00
73600;BME280;61877;48.246;9.220;2024-03-02T02:09:43;92965.91;;;2.76;100.00
73600;BME280;61877;48.246;9.220;2024-03-02T02:12:10;92970.94;;;2.69;100.00
73600;BME280;61877;48.246;9.220;2024-03-02T02:14:36;92959.56;;;2.59;100.00
73600;BME280;61877;48.246;9.220;2024-03-02T02:17:03;92970.34;;;2.54;100.00
73600;BME280;61877;48.246;9.220;2024-03-02T02:19:30;92957.25;;;2.49;100.00
73600;BME280;61877;48.246;9.220;2024-03-02T02:21:58;92970.66;;;2.44;100.00
73600;BME280;61877;48.246;9.220;2024-03-02T02:24:25;92969.53;;;2.54;100.00
73600;BME280;61877;48.246;9.220;2024-03-02T02:26:51;92967.84;;;2.58;100.00
73600;BME280;61877;48.246;9.220;2024-03-02T02:29:18;92970.78;;;2.65;100.00
73600;BME280;61877;48.246;9.220;2024-03-02T02:31:44;92964.69;;;2.73;100.00
73600;BME280;61877;48.246;9.220;2024-03-02T02:34:11;92967.00;;;2.83;100.00
73600;BME280;61877;48.246;9.220;2024-03-02T02:36:38;92975.41;;;2.85;100.00
73600;BME280;61877;48.246;9.220;2024-03-02T02:39:09;92973.03;;;2.92;100.00
73600;BME280;61877;48.246;9.220;2024-03-02T02:41:37;92973.78;;;3.01;100.00
73600;BME280;61877;48.246;9.220;2024-03-02T02:44:04;92965.03;;;3.09;100.00
73600;BME280;61877;48.246;9.220;2024-03-02T02:46:31;92962.78;;;3.28;100.00
73600;BME280;61877;48.246;9.220;2024-03-02T02:48:57;92962.91;;;3.32;100.00
73600;BME280;61877;48.246;9.220;2024-03-02T02:51:24;92966.25;;;3.49;100.00
73600;BME280;61877;48.246;9.220;2024-03-02T02:53:51;92960.78;;;3.54;100.00
73600;BME280;61877;48.246;9.220;2024-03-02T02:56:19;92957.88;;;3.68;100.00
73600;BME280;61877;48.246;9.220;2024-03-02T02:58:46;92952.13;;;3.66;100.00
73600;BME280;61877;48.246;9.220;2024-03-02T03:01:12;92951.06;;;3.58;100.00
73600;BME280;61877;48.246;9.220;2024-03-02T03:03:39;92957.66;;;3.52;100.00
73600;BME280;61877;48.246;9.220;2024-03-02T03:06:06;92954.50;;;3.59;100.00
73600;BME280;61877;48.246;9.220;2024-03-02T03:08:32;92958.31;;;3.70;100.00
73600;BME280;61877;48.246;9.220;2024-03-02T03:10:59;92958.44;;;3.73;100.00
73600;BME280;61877;48.246;9.220;2024-03-02T03:13:27;92956.44;;;3.70;100.00
73600;BME280;61877;48.246;9.220;2024-03-02T03:15:54;92957.88;;;3.68;100.00
73600;BME280;61877;48.246;9.220;2024-03-02T03:18:20;92963.19;;;3.68;100.00
73600;BME280;61877;48.246;9.220;2024-03-02T03:20:47;92960.97;;;3.70;100.00
73600;BME280;61877;48.246;9.220;2024-03-02T03:23:14;92968.31;;;3.73;100.00
73600;BME280;61877;48.246;9.220;2024-03-02T03:25:41;92965.34;;;3.74;100.00
73600;BME280;61877;48.246;9.220;2024-03-02T03:28:07;92965.13;;;3.79;100.00
73600;BME280;61877;48.246;9.220;2024-03-02T03:30:37;92967.78;;;3.79;100.00
73600;BME280;61877;48.246;9.220;2024-03-02T03:33:04;92965.28;;;3.83;100.00
73600;BME280;61877;48.246;9.220;2024-03-02T03:35:31;92960.06;;;3.86;100.00
73600;BME280;61877;48.246;9.220;2024-03-02T03:37:58;92963.38;;;3.83;100.00
73600;BME280;61877;48.246;9.220;2024-03-02T03:40:25;92961.06;;;3.82;100.00
73600;BME280;61877;48.246;9.220;2024-03-02T03:42:51;92967.41;;;3.89;100.00
73600;BME280;61877;48.246;9.220;2024-03-02T03:45:18;92967.09;;;3.91;100.00
73600;BME280;61877;48.246;9.220;2024-03-02T03:47:46;92966.44;;;3.94;100.00
73600;BME280;61877;48.246;9.220;2024-03-02T03:50:13;92964.88;;;3.93;100.00
73600;BME280;61877;48.246;9.220;2024-03-02T03:52:39;92963.00;;;3.93;100.00
73600;BME280;61877;48.246;9.220;2024-03-02T03:55:07;92968.31;;;3.93;100.00
73600;BME280;61877;48.246;9.220;2024-03-02T03:57:33;92966.75;;;3.92;100.00
73600;BME280;61877;48.246;9.220;2024-03-02T04:00:00;92973.63;;;3.93;100.00
73600;BME280;61877;48.246;9.220;2024-03-02T04:02:27;92963.78;;;3.94;100.00
73600;BME280;61877;48.246;9.220;2024-03-02T04:04:55;92959.56;;;3.93;100.00
73600;BME280;61877;48.246;9.220;2024-03-02T04:07:22;92964.44;;;3.91;100.00
73600;BME280;61877;48.246;9.220;2024-03-02T04:09:48;92962.09;;;3.89;100.00
73600;BME280;61877;48.246;9.220;2024-03-02T04:12:15;92957.56;;;3.90;100.00
73600;BME280;61877;48.246;9.220;2024-03-02T04:14:42;92961.66;;;3.87;100.00
73600;BME280;61877;48.246;9.220;2024-03-02T04:17:09;92962.53;;;3.91;100.00
73600;BME280;61877;48.246;9.220;2024-03-02T04:19:36;92968.97;;;3.90;100.00
73600;BME280;61877;48.246;9.220;2024-03-02T04:22:04;92977.38;;;3.92;100.00
73600;BME280;61877;48.246;9.220;2024-03-02T04:24:43;92970.69;;;3.86;100.00
73600;BME280;61877;48.246;9.220;2024-03-02T04:27:10;92969.28;;;3.89;100.00
73600;BME280;61877;48.246;9.220;2024-03-02T04:29:40;92969.88;;;3.94;100.00
73600;BME280;61877;48.246;9.220;2024-03-02T04:32:07;92979.38;;;3.95;100.00
73600;BME280;61877;48.246;9.220;2024-03-02T04:34:33;92980.03;;;3.92;100.00
73600;BME280;61877;48.246;9.220;2024-03-02T04:37:00;92981.56;;;3.93;100.00
73600;BME280;61877;48.246;9.220;2024-03-02T04:39:28;92980.78;;;3.93;100.00
73600;BME280;61877;48.246;9.220;2024-03-02T04:41:55;92980.34;;;3.91;100.00
73600;BME280;61877;48.246;9.220;2024-03-02T04:44:21;92987.06;;;3.88;100.00
73600;BME280;61877;48.246;9.220;2024-03-02T04:46:48;92983.94;;;3.86;100.00
73600;BME280;61877;48.246;9.220;2024-03-02T04:49:14;92981.75;;;3.88;100.00
73600;BME280;61877;48.246;9.220;2024-03-02T04:51:41;92976.72;;;3.95;100.00
73600;BME280;61877;48.246;9.220;2024-03-02T04:54:08;92977.25;;;3.89;100.00
73600;BME280;61877;48.246;9.220;2024-03-02T04:56:36;92977.91;;;3.86;100.00
73600;BME280;61877;48.246;9.220;2024-03-02T04:59:03;92981.50;;;3.81;100.00
73600;BME280;61877;48.246;9.220;2024-03-02T05:01:29;92985.91;;;3.77;100.00
73600;BME280;61877;48.246;9.220;2024-03-02T05:03:56;92984.78;;;3.78;100.00
73600;BME280;61877;48.246;9.220;2024-03-02T05:06:23;92987.91;;;3.80;100.00
73600;BME280;61877;48.246;9.220;2024-03-02T05:08:49;92989.91;;;3.83;100.00
73600;BME280;61877;48.246;9.220;2024-03-02T05:11:16;92991.03;;;3.82;100.00
73600;BME280;61877;48.246;9.220;2024-03-02T05:13:44;92986.38;;;3.79;100.00
73600;BME280;61877;48.246;9.220;2024-03-02T05:16:10;92989.00;;;3.79;100.00
73600;BME280;61877;48.246;9.220;2024-03-02T05:18:37;92987.44;;;3.78;100.00
73600;BME280;61877;48.246;9.220;2024-03-02T05:21:04;92989.34;;;3.78;100.00
73600;BME280;61877;48.246;9.220;2024-03-02T05:23:31;92995.41;;;3.78;100.00
73600;BME280;61877;48.246;9.220;2024-03-02T05:25:57;93004.28;;;3.82;100.00
73600;BME280;61877;48.246;9.220;2024-03-02T05:28:24;92990.56;;;3.80;100.00
73600;BME280;61877;48.246;9.220;2024-03-02T05:30:52;92998.97;;;3.82;100.00
73600;BME280;61877;48.246;9.220;2024-03-02T05:33:18;92989.44;;;3.81;100.00
73600;BME280;61877;48.246;9.220;2024-03-02T05:35:45;92992.56;;;3.83;100.00
73600;BME280;61877;48.246;9.220;2024-03-02T05:38:12;93001.63;;;3.82;100.00
73600;BME280;61877;48.246;9.220;2024-03-02T05:40:39;92994.75;;;3.81;100.00
73600;BME280;61877;48.246;9.220;2024-03-02T05:43:05;92989.44;;;3.81;100.00
73600;BME280;61877;48.246;9.220;2024-03-02T05:45:32;92986.78;;;3.81;100.00
73600;BME280;61877;48.246;9.220;2024-03-02T05:48:00;92990.22;;;3.82;100.00
73600;BME280;61877;48.246;9.220;2024-03-02T05:50:27;92992.56;;;3.83;100.00
73600;BME280;61877;48.246;9.220;2024-03-02T05:52:53;92996.78;;;3.84;100.00
73600;BME280;61877;48.246;9.220;2024-03-02T05:55:20;93005.81;;;3.83;100.00
73600;BME280;61877;48.246;9.220;2024-03-02T05:57:46;93000.53;;;3.83;100.00
73600;BME280;61877;48.246;9.220;2024-03-02T06:00:14;93001.44;;;3.87;100.00
73600;BME280;61877;48.246;9.220;2024-03-02T06:02:41;92989.72;;;3.88;100.00
73600;BME280;61877;48.246;9.220;2024-03-02T06:05:09;92997.34;;;3.90;100.00
73600;BME280;61877;48.246;9.220;2024-03-02T06:07:36;93002.66;;;3.90;100.00
73600;BME280;61877;48.246;9.220;2024-03-02T06:10:03;93000.16;;;3.93;100.00
73600;BME280;61877;48.246;9.220;2024-03-02T06:12:31;92997.03;;;3.91;100.00
73600;BME280;61877;48.246;9.220;2024-03-02T06:14:57;93001.91;;;3.89;100.00
73600;BME280;61877;48.246;9.220;2024-03-02T06:17:24;93002.34;;;3.91;100.00
73600;BME280;61877;48.246;9.220;2024-03-02T06:19:50;93007.03;;;3.94;100.00
73600;BME280;61877;48.246;9.220;2024-03-02T06:22:19;93010.56;;;3.98;100.00
73600;BME280;61877;48.246;9.220;2024-03-02T06:24:45;93003.41;;;3.99;100.00
73600;BME280;61877;48.246;9.220;2024-03-02T06:27:12;93001.63;;;4.03;100.00
73600;BME280;61877;48.246;9.220;2024-03-02T06:29:38;93000.38;;;4.09;100.00
73600;BME280;61877;48.246;9.220;2024-03-02T06:32:05;93012.47;;;4.19;100.00
73600;BME280;61877;48.246;9.220;2024-03-02T06:34:32;93007.75;;;4.24;100.00
73600;BME280;61877;48.246;9.220;2024-03-02T06:36:59;93012.88;;;4.29;100.00
73600;BME280;61877;48.246;9.220;2024-03-02T06:39:27;93013.88;;;4.37;100.00
73600;BME280;61877;48.246;9.220;2024-03-02T06:41:53;93027.88;;;4.46;100.00
73600;BME280;61877;48.246;9.220;2024-03-02T06:44:20;93023.00;;;4.48;100.00
73600;BME280;61877;48.246;9.220;2024-03-02T06:46:46;93024.72;;;4.52;100.00
73600;BME280;61877;48.246;9.220;2024-03-02T06:49:13;93026.06;;;4.58;100.00
73600;BME280;61877;48.246;9.220;2024-03-02T06:51:40;93020.22;;;4.65;100.00
73600;BME280;61877;48.246;9.220;2024-03-02T06:54:07;93022.66;;;4.70;100.00
73600;BME280;61877;48.246;9.220;2024-03-02T06:56:35;93017.34;;;4.70;100.00
73600;BME280;61877;48.246;9.220;2024-03-02T06:59:01;93019.81;;;4.75;100.00
73600;BME280;61877;48.246;9.220;2024-03-02T07:01:28;93022.78;;;4.73;100.00
73600;BME280;61877;48.246;9.220;2024-03-02T07:03:55;93020.53;;;4.84;100.00
73600;BME280;61877;48.246;9.220;2024-03-02T07:06:21;93023.59;;;4.86;100.00
73600;BME280;61877;48.246;9.220;2024-03-02T07:08:48;93019.13;;;4.98;100.00
73600;BME280;61877;48.246;9.220;2024-03-02T07:11:15;93035.44;;;5.09;100.00
73600;BME280;61877;48.246;9.220;2024-03-02T07:13:43;93029.59;;;5.15;100.00
73600;BME280;61877;48.246;9.220;2024-03-02T07:16:09;93027.34;;;5.17;100.00
73600;BME280;61877;48.246;9.220;2024-03-02T07:18:36;93024.34;;;5.19;100.00
73600;BME280;61877;48.246;9.220;2024-03-02T07:21:03;93015.25;;;5.08;100.00
73600;BME280;61877;48.246;9.220;2024-03-02T07:23:30;93024.47;;;5.10;100.00
73600;BME280;61877;48.246;9.220;2024-03-02T07:25:57;93032.31;;;5.07;100.00
73600;BME280;61877;48.246;9.220;2024-03-02T07:28:26;93026.56;;;5.05;100.00
73600;BME280;61877;48.246;9.220;2024-03-02T07:30:59;93022.44;;;4.95;100.00
73600;BME280;61877;48.246;9.220;2024-03-02T07:33:25;93022.09;;;4.97;100.00
73600;BME280;61877;48.246;9.220;2024-03-02T07:35:52;93031.41;;;5.03;100.00
73600;BME280;61877;48.246;9.220;2024-03-02T07:38:20;93038.81;;;4.97;100.00
73600;BME280;61877;48.246;9.220;2024-03-02T07:40:47;93031.06;;;4.92;100.00
73600;BME280;61877;48.246;9.220;2024-03-02T07:43:16;93027.41;;;4.97;100.00
73600;BME280;61877;48.246;9.220;2024-03-02T07:45:47;93023.00;;;5.01;100.00
73600;BME280;61877;48.246;9.220;2024-03-02T07:48:15;93023.13;;;5.04;100.00
73600;BME280;61877;48.246;9.220;2024-03-02T07:50:42;93024.16;;;5.12;100.00
73600;BME280;61877;48.246;9.220;2024-03-02T07:53:09;93015.97;;;5.17;100.00
73600;BME280;61877;48.246;9.220;2024-03-02T07:55:35;93018.41;;;5.22;100.00
73600;BME280;61877;48.246;9.220;2024-03-02T07:58:02;93030.03;;;5.29;100.00
73600;BME280;61877;48.246;9.220;2024-03-02T08:00:29;93022.00;;;5.50;100.00
73600;BME280;61877;48.246;9.220;2024-03-02T08:02:56;93017.00;;;5.73;100.00
73600;BME280;61877;48.246;9.220;2024-03-02T08:05:24;93019.38;;;5.86;100.00
73600;BME280;61877;48.246;9.220;2024-03-02T08:07:51;93015.34;;;6.16;100.00
73600;BME280;61877;48.246;9.220;2024-03-02T08:10:21;93017.09;;;6.36;100.00
73600;BME280;61877;48.246;9.220;2024-03-02T08:12:50;93017.84;;;6.37;100.00
73600;BME280;61877;48.246;9.220;2024-03-02T08:15:18;93017.84;;;6.77;100.00
73600;BME280;61877;48.246;9.220;2024-03-02T08:17:45;93023.00;;;6.97;100.00
73600;BME280;61877;48.246;9.220;2024-03-02T08:20:16;93020.72;;;7.11;100.00
73600;BME280;61877;48.246;9.220;2024-03-02T08:22:47;93017.44;;;7.18;100.00
73600;BME280;61877;48.246;9.220;2024-03-02T08:25:29;93013.16;;;7.29;96.69
73600;BME280;61877;48.246;9.220;2024-03-02T08:28:17;93019.72;;;7.04;96.52
73600;BME280;61877;48.246;9.220;2024-03-02T08:34:02;93017.13;;;7.19;97.83
73600;BME280;61877;48.246;9.220;2024-03-02T08:36:54;93010.94;;;7.31;96.11
73600;BME280;61877;48.246;9.220;2024-03-02T08:39:49;93003.53;;;7.40;96.35
73600;BME280;61877;48.246;9.220;2024-03-02T08:42:35;93009.91;;;7.51;96.46
73600;BME280;61877;48.246;9.220;2024-03-02T08:45:07;93009.47;;;7.33;96.31
73600;BME280;61877;48.246;9.220;2024-03-02T08:51:03;93011.50;;;7.09;96.53
73600;BME280;61877;48.246;9.220;2024-03-02T08:57:18;93026.19;;;7.03;97.24
73600;BME280;61877;48.246;9.220;2024-03-02T08:59:51;93009.38;;;7.30;94.97
73600;BME280;61877;48.246;9.220;2024-03-02T09:02:31;93009.91;;;7.51;95.87
73600;BME280;61877;48.246;9.220;2024-03-02T09:04:59;93010.16;;;7.77;93.36
73600;BME280;61877;48.246;9.220;2024-03-02T09:07:28;93010.09;;;7.89;93.52
73600;BME280;61877;48.246;9.220;2024-03-02T09:09:55;93020.25;;;7.68;92.76
73600;BME280;61877;48.246;9.220;2024-03-02T09:12:26;93013.34;;;7.67;92.97
73600;BME280;61877;48.246;9.220;2024-03-02T09:14:55;93007.59;;;7.80;91.01
73600;BME280;61877;48.246;9.220;2024-03-02T09:17:44;93000.19;;;7.58;90.92
73600;BME280;61877;48.246;9.220;2024-03-02T09:20:11;92998.44;;;7.81;90.75
73600;BME280;61877;48.246;9.220;2024-03-02T09:22:38;92995.16;;;8.04;88.84
73600;BME280;61877;48.246;9.220;2024-03-02T09:25:05;92998.91;;;8.18;88.97
73600;BME280;61877;48.246;9.220;2024-03-02T09:27:33;92991.53;;;8.12;89.55
73600;BME280;61877;48.246;9.220;2024-03-02T09:30:21;92983.44;;;8.24;89.67
73600;BME280;61877;48.246;9.220;2024-03-02T09:36:04;92987.69;;;8.44;88.06
73600;BME280;61877;48.246;9.220;2024-03-02T09:38:33;92984.66;;;8.64;86.72
73600;BME280;61877;48.246;9.220;2024-03-02T09:41:02;92988.34;;;8.75;86.78
73600;BME280;61877;48.246;9.220;2024-03-02T09:43:30;92989.53;;;8.59;84.66
73600;BME280;61877;48.246;9.220;2024-03-02T09:45:57;92988.31;;;8.94;85.28
73600;BME280;61877;48.246;9.220;2024-03-02T09:48:23;92978.34;;;9.33;85.18
73600;BME280;61877;48.246;9.220;2024-03-02T09:50:50;92971.97;;;9.64;81.47
73600;BME280;61877;48.246;9.220;2024-03-02T09:53:18;92970.06;;;9.64;82.01
73600;BME280;61877;48.246;9.220;2024-03-02T09:55:46;92965.47;;;9.87;79.15
73600;BME280;61877;48.246;9.220;2024-03-02T09:58:13;92970.19;;;10.20;77.87
73600;BME280;61877;48.246;9.220;2024-03-02T10:01:00;92967.00;;;10.11;74.64
73600;BME280;61877;48.246;9.220;2024-03-02T10:03:48;92962.41;;;10.67;75.83
73600;BME280;61877;48.246;9.220;2024-03-02T10:06:20;92960.00;;;10.59;73.38
73600;BME280;61877;48.246;9.220;2024-03-02T10:08:50;92963.06;;;10.57;74.04
73600;BME280;61877;48.246;9.220;2024-03-02T10:11:30;92958.22;;;11.03;71.19
73600;BME280;61877;48.246;9.220;2024-03-02T10:14:07;92956.09;;;10.82;68.01
73600;BME280;61877;48.246;9.220;2024-03-02T10:16:36;92950.25;;;11.10;69.58
73600;BME280;61877;48.246;9.220;2024-03-02T10:19:16;92940.09;;;11.29;68.02
73600;BME280;61877;48.246;9.220;2024-03-02T10:21:43;92939.91;;;11.48;65.75
73600;BME280;61877;48.246;9.220;2024-03-02T10:24:10;92926.09;;;11.90;64.39
73600;BME280;61877;48.246;9.220;2024-03-02T10:26:37;92932.22;;;12.45;62.24
73600;BME280;61877;48.246;9.220;2024-03-02T10:29:10;92926.31;;;12.29;64.54
73600;BME280;61877;48.246;9.220;2024-03-02T10:31:39;92924.91;;;12.49;62.54
73600;BME280;61877;48.246;9.220;2024-03-02T10:34:06;92922.63;;;12.51;61.11
73600;BME280;61877;48.246;9.220;2024-03-02T10:36:33;92930.28;;;11.88;63.08
73600;BME280;61877;48.246;9.220;2024-03-02T10:39:01;92925.38;;;12.61;61.91
73600;BME280;61877;48.246;9.220;2024-03-02T10:41:28;92926.97;;;12.83;62.32
73600;BME280;61877;48.246;9.220;2024-03-02T10:44:03;92918.88;;;12.69;60.60
73600;BME280;61877;48.246;9.220;2024-03-02T10:47:05;92916.78;;;13.38;61.58
73600;BME280;61877;48.246;9.220;2024-03-02T10:51:40;92912.53;;;13.27;59.25
73600;BME280;61877;48.246;9.220;2024-03-02T10:53:11;92903.75;;;13.79;60.74
73600;BME280;61877;48.246;9.220;2024-03-02T10:55:57;92899.84;;;14.47;57.47
73600;BME280;61877;48.246;9.220;2024-03-02T10:58:39;92902.28;;;15.17;54.89
73600;BME280;61877;48.246;9.220;2024-03-02T11:01:10;92895.28;;;15.23;52.96
73600;BME280;61877;48.246;9.220;2024-03-02T11:03:42;92893.97;;;15.52;53.13
73600;BME280;61877;48.246;9.220;2024-03-02T11:06:11;92888.22;;;15.98;52.10
73600;BME280;61877;48.246;9.220;2024-03-02T11:08:40;92889.44;;;16.34;51.99
73600;BME280;61877;48.246;9.220;2024-03-02T11:11:15;92884.59;;;16.55;50.51
73600;BME280;61877;48.246;9.220;2024-03-02T11:13:50;92881.06;;;16.58;50.62
73600;BME280;61877;48.246;9.220;2024-03-02T11:16:34;92886.78;;;16.67;48.40
73600;BME280;61877;48.246;9.220;2024-03-02T11:19:24;92878.03;;;17.20;46.96
73600;BME280;61877;48.246;9.220;2024-03-02T11:21:53;92874.00;;;17.32;45.20
73600;BME280;61877;48.246;9.220;2024-03-02T11:24:40;92881.22;;;17.12;44.10
73600;BME280;61877;48.246;9.220;2024-03-02T11:30:50;92865.16;;;17.81;41.69
73600;BME280;61877;48.246;9.220;2024-03-02T11:33:23;92868.03;;;16.84;43.03
73600;BME280;61877;48.246;9.220;2024-03-02T11:35:52;92862.22;;;17.15;45.19
73600;BME280;61877;48.246;9.220;2024-03-02T11:38:19;92861.16;;;17.36;44.72
73600;BME280;61877;48.246;9.220;2024-03-02T11:40:46;92859.72;;;17.81;45.51
73600;BME280;61877;48.246;9.220;2024-03-02T11:43:13;92859.97;;;18.36;43.53
73600;BME280;61877;48.246;9.220;2024-03-02T11:45:42;92860.91;;;18.03;42.00
73600;BME280;61877;48.246;9.220;2024-03-02T11:48:14;92846.66;;;18.22;42.88
73600;BME280;61877;48.246;9.220;2024-03-02T11:50:42;92850.34;;;18.74;41.91
73600;BME280;61877;48.246;9.220;2024-03-02T11:53:14;92838.34;;;18.52;40.70
73600;BME280;61877;48.246;9.220;2024-03-02T11:55:41;92843.50;;;18.24;41.18
73600;BME280;61877;48.246;9.220;2024-03-02T11:58:08;92835.50;;;18.98;40.79
73600;BME280;61877;48.246;9.220;2024-03-02T12:00:37;92833.47;;;18.21;41.14
73600;BME280;61877;48.246;9.220;2024-03-02T12:03:06;92834.44;;;19.32;39.88
73600;BME280;61877;48.246;9.220;2024-03-02T12:05:33;92829.31;;;18.78;38.96
73600;BME280;61877;48.246;9.220;2024-03-02T12:08:01;92827.25;;;19.02;40.22
73600;BME280;61877;48.246;9.220;2024-03-02T12:10:30;92812.03;;;20.24;37.92
73600;BME280;61877;48.246;9.220;2024-03-02T12:12:58;92824.03;;;19.94;38.34
73600;BME280;61877;48.246;9.220;2024-03-02T12:15:26;92809.75;;;21.08;36.18
73600;BME280;61877;48.246;9.220;2024-03-02T12:18:02;92804.13;;;21.40;34.89
73600;BME280;61877;48.246;9.220;2024-03-02T12:21:10;92803.69;;;21.80;33.84
73600;BME280;61877;48.246;9.220;2024-03-02T12:23:40;92802.25;;;20.96;32.99
73600;BME280;61877;48.246;9.220;2024-03-02T12:26:22;92788.34;;;20.37;33.72
73600;BME280;61877;48.246;9.220;2024-03-02T12:29:05;92785.47;;;20.85;34.75
73600;BME280;61877;48.246;9.220;2024-03-02T12:32:01;92782.84;;;21.35;32.97
73600;BME280;61877;48.246;9.220;2024-03-02T12:34:51;92786.94;;;21.02;32.37
73600;BME280;61877;48.246;9.220;2024-03-02T12:37:25;92783.47;;;21.64;30.96
73600;BME280;61877;48.246;9.220;2024-03-02T12:39:58;92782.81;;;21.73;30.99
73600;BME280;61877;48.246;9.220;2024-03-02T12:42:41;92769.94;;;21.86;31.35
73600;BME280;61877;48.246;9.220;2024-03-02T12:45:09;92770.16;;;23.55;29.92
73600;BME280;61877;48.246;9.220;2024-03-02T12:48:06;92767.47;;;24.04;30.00
73600;BME280;61877;48.246;9.220;2024-03-02T12:50:37;92765.81;;;24.61;27.98
73600;BME280;61877;48.246;9.220;2024-03-02T12:53:31;92763.38;;;24.45;27.53
73600;BME280;61877;48.246;9.220;2024-03-02T12:56:23;92757.34;;;25.45;28.14
73600;BME280;61877;48.246;9.220;2024-03-02T12:58:58;92759.59;;;25.56;27.74
73600;BME280;61877;48.246;9.220;2024-03-02T13:01:50;92747.63;;;26.01;26.72
73600;BME280;61877;48.246;9.220;2024-03-02T13:04:16;92740.56;;;26.56;24.59
73600;BME280;61877;48.246;9.220;2024-03-02T13:06:43;92743.84;;;25.15;25.86
73600;BME280;61877;48.246;9.220;2024-03-02T13:09:11;92747.56;;;24.76;26.85
73600;BME280;61877;48.246;9.220;2024-03-02T13:11:39;92741.28;;;24.30;27.37
73600;BME280;61877;48.246;9.220;2024-03-02T13:14:07;92755.50;;;25.52;27.79
73600;BME280;61877;48.246;9.220;2024-03-02T13:16:38;92752.88;;;25.57;27.55
73600;BME280;61877;48.246;9.220;2024-03-02T13:19:13;92746.88;;;26.00;25.35
73600;BME280;61877;48.246;9.220;2024-03-02T13:21:40;92740.53;;;25.85;26.56
73600;BME280;61877;48.246;9.220;2024-03-02T13:24:07;92745.88;;;24.60;26.69
73600;BME280;61877;48.246;9.220;2024-03-02T13:26:34;92731.66;;;25.58;26.19
73600;BME280;61877;48.246;9.220;2024-03-02T13:29:02;92732.81;;;25.75;26.06
73600;BME280;61877;48.246;9.220;2024-03-02T13:31:31;92735.22;;;26.14;26.11
73600;BME280;61877;48.246;9.220;2024-03-02T13:33:57;92725.38;;;25.66;25.68